Time;durP1;ratioP1;P1;durP2;ratioP2;P2;SDS_P1;SDS_P2;PMS_P1;PMS_P2;Temp;Humidity;BMP_temperature;BMP_pressure;BME280_temperature;BME280_humidity;BME280_pressure;Samples;Min_cycle;Max_cycle;Signal;HPM_P1;HPM_P2
2023/09/24 00:01:27;;;;;;;3.83;2.50;;;13.30;99.90;;;;;;5016318;28;20509;-80
2023/09/24 00:03:55;;;;;;;2.70;2.50;;;13.20;99.90;;;;;;5018218;28;20522;-80
2023/09/24 00:06:22;;;;;;;4.40;3.47;;;13.20;99.90;;;;;;5010759;28;20469;-78
2023/09/24 00:08:49;;;;;;;3.33;3.00;;;13.10;99.90;;;;;;5019509;28;20455;-79
2023/09/24 00:11:16;;;;;;;2.70;2.50;;;13.10;99.90;;;;;;5019901;28;20944;-80
2023/09/24 00:13:43;;;;;;;2.77;2.57;;;13.00;99.90;;;;;;5019774;28;20450;-81
2023/09/24 00:16:11;;;;;;;3.07;2.47;;;13.00;99.90;;;;;;5018689;28;20471;-81
2023/09/24 00:18:38;;;;;;;2.30;2.10;;;13.00;99.90;;;;;;5019157;28;20498;-80
2023/09/24 00:21:06;;;;;;;7.73;2.57;;;12.90;99.90;;;;;;5012587;28;20965;-80
2023/09/24 00:23:33;;;;;;;3.83;2.57;;;13.00;99.90;;;;;;5008746;28;20444;-80
2023/09/24 00:26:00;;;;;;;3.27;2.50;;;13.00;99.90;;;;;;5018156;28;20491;-78
2023/09/24 00:28:27;;;;;;;5.23;2.73;;;13.00;99.90;;;;;;5018176;28;20447;-80
2023/09/24 00:30:54;;;;;;;2.87;2.20;;;13.00;99.90;;;;;;5019929;28;20527;-79
2023/09/24 00:33:21;;;;;;;2.77;2.57;;;12.90;99.90;;;;;;5018794;28;20451;-81
2023/09/24 00:35:48;;;;;;;2.60;2.40;;;12.90;99.90;;;;;;5018867;28;20493;-81
2023/09/24 00:38:17;;;;;;;2.73;2.30;;;13.10;99.90;;;;;;5018607;28;20447;-80
2023/09/24 00:40:44;;;;;;;3.70;2.50;;;12.80;99.90;;;;;;5016722;28;20459;-80
2023/09/24 00:43:28;;;;;;;3.47;2.90;;;12.70;99.90;;;;;;5017371;28;20455;-80
2023/09/24 00:45:56;;;;;;;3.10;2.80;;;12.50;99.90;;;;;;5024736;28;20590;-77
2023/09/24 00:48:28;;;;;;;2.87;2.60;;;12.50;99.90;;;;;;5023532;28;20444;-79
2023/09/24 00:50:57;;;;;;;3.20;2.90;;;12.50;99.90;;;;;;5020330;28;20486;-78
2023/09/24 00:53:27;;;;;;;3.53;3.00;;;12.50;99.90;;;;;;5012539;28;20503;-79
2023/09/24 00:55:54;;;;;;;3.17;2.97;;;12.50;99.90;;;;;;5027176;28;20479;-79
2023/09/24 00:58:23;;;;;;;2.70;2.50;;;12.40;99.90;;;;;;5019791;28;20441;-78
2023/09/24 01:00:51;;;;;;;2.87;2.67;;;12.40;99.90;;;;;;5023169;28;20444;-79
2023/09/24 01:03:18;;;;;;;2.63;2.30;;;12.40;99.90;;;;;;5023176;28;20455;-80
2023/09/24 01:05:49;;;;;;;5.13;3.27;;;12.30;99.90;;;;;;5014321;28;20531;-80
2023/09/24 01:08:17;;;;;;;6.03;3.23;;;12.30;99.90;;;;;;5013990;28;20818;-80
2023/09/24 01:10:47;;;;;;;5.00;2.83;;;12.20;99.90;;;;;;5017744;28;20531;-79
2023/09/24 01:13:19;;;;;;;3.00;2.80;;;12.20;99.90;;;;;;5016466;28;20439;-79
2023/09/24 01:15:49;;;;;;;3.00;2.70;;;12.20;99.90;;;;;;5017405;28;20875;-79
2023/09/24 01:18:16;;;;;;;2.80;2.60;;;12.10;99.90;;;;;;5018114;28;20972;-79
2023/09/24 01:20:43;;;;;;;2.77;2.60;;;12.10;99.90;;;;;;5018382;28;20456;-82
2023/09/24 01:23:14;;;;;;;3.13;2.80;;;12.10;99.90;;;;;;5014424;28;20475;-79
2023/09/24 01:25:43;;;;;;;3.33;3.13;;;12.00;99.90;;;;;;5017624;28;20569;-80
2023/09/24 01:28:11;;;;;;;3.07;2.83;;;12.00;99.90;;;;;;5017300;28;20470;-79
2023/09/24 01:30:38;;;;;;;3.47;2.87;;;12.00;99.90;;;;;;5016796;28;20490;-79
2023/09/24 01:33:06;;;;;;;3.87;3.20;;;12.00;99.90;;;;;;5012120;28;20464;-80
2023/09/24 01:35:33;;;;;;;3.83;2.67;;;12.00;99.90;;;;;;5014241;28;20486;-81
2023/09/24 01:38:04;;;;;;;3.40;3.10;;;12.00;99.90;;;;;;5011865;28;20444;-80
2023/09/24 01:40:35;;;;;;;3.37;3.10;;;12.00;99.90;;;;;;5013936;28;20454;-82
2023/09/24 01:43:04;;;;;;;3.87;3.03;;;12.00;99.90;;;;;;5016649;28;20440;-80
2023/09/24 01:45:33;;;;;;;3.30;3.03;;;11.90;99.90;;;;;;5016643;28;20538;-80
2023/09/24 01:48:00;;;;;;;3.70;3.13;;;11.90;99.90;;;;;;5016451;28;20532;-78
2023/09/24 01:50:27;;;;;;;3.37;3.10;;;11.90;99.90;;;;;;5009057;28;20843;-80
2023/09/24 01:52:53;;;;;;;4.50;3.10;;;11.80;99.90;;;;;;5009271;28;20440;-82
2023/09/24 01:55:21;;;;;;;3.57;3.27;;;11.80;99.90;;;;;;5016901;28;20456;-82
2023/09/24 01:57:51;;;;;;;3.80;3.47;;;;;;;;;;5018857;28;20542;-79
2023/09/24 02:00:21;;;;;;;3.60;3.20;;;11.60;99.90;;;;;;5019168;28;20444;-81
2023/09/24 02:02:49;;;;;;;3.40;3.10;;;11.60;99.90;;;;;;5019432;28;20447;-81
2023/09/24 02:05:16;;;;;;;3.33;3.03;;;11.60;99.90;;;;;;5014553;28;21018;-78
2023/09/24 02:07:43;;;;;;;3.30;3.10;;;11.60;99.90;;;;;;5018083;28;20474;-81
2023/09/24 02:10:12;;;;;;;3.17;2.90;;;11.50;99.90;;;;;;5027274;28;20515;-79
2023/09/24 02:12:41;;;;;;;3.27;3.00;;;11.50;99.90;;;;;;5022250;28;20505;-79
2023/09/24 02:15:13;;;;;;;3.10;2.90;;;11.50;99.90;;;;;;5023652;28;20528;-80
2023/09/24 02:17:41;;;;;;;3.40;2.80;;;11.50;99.90;;;;;;5009561;28;20509;-79
2023/09/24 02:20:14;;;;;;;3.63;3.33;;;11.40;99.90;;;;;;5017497;28;20443;-79
2023/09/24 02:22:42;;;;;;;3.33;3.03;;;11.40;99.90;;;;;;5021341;28;21047;-78
2023/09/24 02:25:13;;;;;;;3.57;3.37;;;11.40;99.90;;;;;;5012610;28;20490;-79
2023/09/24 02:27:40;;;;;;;4.27;3.30;;;11.40;99.90;;;;;;5008816;28;20462;-81
2023/09/24 02:30:11;;;;;;;3.63;3.13;;;11.40;99.90;;;;;;5012703;28;20451;-80
2023/09/24 02:32:38;;;;;;;3.83;3.50;;;11.40;99.90;;;;;;5024726;28;20837;-78
2023/09/24 02:35:07;;;;;;;4.10;3.70;;;11.30;99.90;;;;;;5017204;28;20517;-79
2023/09/24 02:37:33;;;;;;;3.60;3.30;;;11.30;99.90;;;;;;5016084;28;20446;-80
2023/09/24 02:40:00;;;;;;;3.13;2.93;;;11.30;99.90;;;;;;5016568;28;20440;-79
2023/09/24 02:42:27;;;;;;;4.80;3.90;;;11.30;99.90;;;;;;5014434;28;20936;-78
2023/09/24 02:44:54;;;;;;;4.40;4.00;;;11.30;99.90;;;;;;5009283;28;20487;-79
2023/09/24 02:47:22;;;;;;;5.77;4.10;;;11.20;99.90;;;;;;5015479;28;20538;-79
2023/09/24 02:49:49;;;;;;;4.50;4.17;;;10.60;99.90;;;;;;5012057;28;20443;-79
2023/09/24 02:52:16;;;;;;;4.90;4.40;;;11.20;99.90;;;;;;5001233;28;20447;-79
2023/09/24 02:54:43;;;;;;;4.70;4.30;;;11.20;99.90;;;;;;5014245;28;20459;-78
2023/09/24 02:57:09;;;;;;;4.67;4.27;;;11.10;99.90;;;;;;5012591;28;20498;-77
2023/09/24 02:59:36;;;;;;;4.60;4.30;;;11.10;99.90;;;;;;5013198;28;20940;-78
2023/09/24 03:02:03;;;;;;;6.20;5.27;;;11.00;99.90;;;;;;5006148;28;20443;-78
2023/09/24 03:04:31;;;;;;;5.57;4.93;;;11.00;99.90;;;;;;5014499;28;20464;-79
2023/09/24 03:06:58;;;;;;;5.20;4.70;;;10.90;99.90;;;;;;5005956;28;21014;-80
2023/09/24 03:09:24;;;;;;;7.70;4.70;;;10.90;99.90;;;;;;5006579;28;20440;-80
2023/09/24 03:11:51;;;;;;;5.17;4.77;;;10.90;99.90;;;;;;5014649;28;20445;-79
2023/09/24 03:14:18;;;;;;;5.07;4.67;;;10.90;99.90;;;;;;5017971;28;20447;-78
2023/09/24 03:16:45;;;;;;;4.90;4.50;;;10.80;99.90;;;;;;5010184;28;20459;-78
2023/09/24 03:19:12;;;;;;;5.57;5.00;;;10.80;99.90;;;;;;5019633;28;20451;-79
2023/09/24 03:21:42;;;;;;;4.93;4.50;;;10.80;99.90;;;;;;5010380;28;20466;-78
2023/09/24 03:24:11;;;;;;;8.13;5.43;;;10.70;99.90;;;;;;5014195;28;20459;-79
2023/09/24 03:26:38;;;;;;;6.90;5.70;;;10.40;99.90;;;;;;5018280;28;20553;-81
2023/09/24 03:29:05;;;;;;;8.23;6.00;;;10.70;99.90;;;;;;5019778;28;20448;-80
2023/09/24 03:31:32;;;;;;;6.60;6.00;;;10.60;99.90;;;;;;5025270;28;20446;-78
2023/09/24 03:33:59;;;;;;;6.53;5.83;;;10.60;99.90;;;;;;5030400;28;20454;-78
2023/09/24 03:36:26;;;;;;;5.80;5.30;;;10.60;99.90;;;;;;5029835;28;20455;-78
2023/09/24 03:38:54;;;;;;;5.80;5.30;;;10.60;99.90;;;;;;5023007;28;21168;-78
2023/09/24 03:41:23;;;;;;;6.20;5.00;;;10.90;99.90;;;;;;5035913;28;20443;-77
2023/09/24 03:43:49;;;;;;;5.57;5.07;;;10.50;99.90;;;;;;5031105;28;20446;-78
2023/09/24 03:46:16;;;;;;;5.57;5.07;;;10.50;99.90;;;;;;5036277;28;20586;-78
2023/09/24 03:48:43;;;;;;;5.40;5.00;;;10.50;99.90;;;;;;5035583;28;20956;-79
2023/09/24 03:51:10;;;;;;;7.77;5.43;;;10.50;99.90;;;;;;5033384;28;20454;-79
2023/09/24 03:53:37;;;;;;;5.60;5.03;;;10.50;99.90;;;;;;5029423;28;20448;-77
2023/09/24 03:56:07;;;;;;;6.47;4.83;;;10.50;99.90;;;;;;5036116;28;20455;-77
2023/09/24 03:58:34;;;;;;;5.60;5.20;;;10.40;99.90;;;;;;5038768;28;20445;-76
2023/09/24 04:01:08;;;;;;;6.13;5.00;;;10.40;99.90;;;;;;5030840;28;20462;-77
2023/09/24 04:03:35;;;;;;;5.60;5.10;;;10.40;99.90;;;;;;5038636;28;20423;-77
2023/09/24 04:06:08;;;;;;;5.40;5.00;;;10.30;99.90;;;;;;5037987;28;20489;-77
2023/09/24 04:08:35;;;;;;;5.97;5.40;;;10.50;99.90;;;;;;5038307;28;20448;-76
2023/09/24 04:11:02;;;;;;;5.67;5.17;;;10.30;99.90;;;;;;5033241;28;20448;-78
2023/09/24 04:13:30;;;;;;;5.50;5.10;;;10.40;99.90;;;;;;5033429;28;20442;-76
2023/09/24 04:15:57;;;;;;;5.30;4.90;;;10.40;99.90;;;;;;5037743;28;20448;-77
2023/09/24 04:18:24;;;;;;;6.13;5.60;;;10.40;99.90;;;;;;5037751;28;20460;-77
2023/09/24 04:20:52;;;;;;;5.37;4.87;;;10.70;99.90;;;;;;5037311;28;20439;-77
2023/09/24 04:23:18;;;;;;;5.30;4.80;;;10.60;99.90;;;;;;5034823;28;21040;-77
2023/09/24 04:25:45;;;;;;;7.50;5.60;;;10.30;99.90;;;;;;5020118;28;20498;-77
2023/09/24 04:28:13;;;;;;;6.37;5.77;;;10.20;99.90;;;;;;5035392;28;20444;-76
2023/09/24 04:30:41;;;;;;;6.17;5.67;;;10.30;99.90;;;;;;5037351;28;20451;-77
2023/09/24 04:33:09;;;;;;;5.60;5.17;;;10.20;99.90;;;;;;5035049;28;20447;-76
2023/09/24 04:35:35;;;;;;;6.30;5.70;;;10.20;99.90;;;;;;5026509;28;20477;-78
2023/09/24 04:38:02;;;;;;;5.63;5.13;;;10.10;99.90;;;;;;5009998;28;20547;-79
2023/09/24 04:40:31;;;;;;;6.40;5.83;;;10.10;99.90;;;;;;5018082;28;20443;-78
2023/09/24 04:42:57;;;;;;;6.50;5.90;;;10.10;99.90;;;;;;5018050;28;20533;-80
2023/09/24 04:45:24;;;;;;;5.50;5.10;;;10.10;99.90;;;;;;5017184;28;20487;-78
2023/09/24 04:47:52;;;;;;;6.20;5.30;;;10.10;99.90;;;;;;5016981;28;20523;-80
2023/09/24 04:50:19;;;;;;;6.27;5.70;;;10.10;99.90;;;;;;5016904;28;20446;-78
2023/09/24 04:52:47;;;;;;;4.90;4.60;;;10.00;99.90;;;;;;5016191;28;20466;-79
2023/09/24 04:55:14;;;;;;;5.10;4.70;;;10.00;99.90;;;;;;5010852;28;20537;-78
2023/09/24 04:57:41;;;;;;;4.53;4.20;;;10.00;99.90;;;;;;5016668;28;20447;-81
2023/09/24 05:00:10;;;;;;;5.10;4.03;;;10.00;99.90;;;;;;5017341;28;20451;-79
2023/09/24 05:02:37;;;;;;;4.27;3.93;;;9.90;99.90;;;;;;5016829;28;20443;-78
2023/09/24 05:05:06;;;;;;;4.10;3.80;;;10.00;99.90;;;;;;5008928;28;20467;-80
2023/09/24 05:07:33;;;;;;;4.50;4.10;;;10.00;99.90;;;;;;5008817;28;20475;-79
2023/09/24 05:10:00;;;;;;;4.63;4.03;;;10.00;99.90;;;;;;5017008;28;20439;-80
2023/09/24 05:12:26;;;;;;;5.20;4.70;;;10.00;99.90;;;;;;5017401;28;20447;-79
2023/09/24 05:14:53;;;;;;;4.30;3.90;;;10.00;99.90;;;;;;5016724;28;20474;-80
2023/09/24 05:17:20;;;;;;;4.17;3.80;;;10.00;99.90;;;;;;5017836;28;20436;-79
2023/09/24 05:19:47;;;;;;;4.40;4.00;;;10.00;99.90;;;;;;5017243;28;20458;-77
2023/09/24 05:22:15;;;;;;;4.30;3.90;;;9.90;99.90;;;;;;5016378;28;20815;-78
2023/09/24 05:24:41;;;;;;;4.23;3.93;;;9.90;99.90;;;;;;5015655;28;20881;-79
2023/09/24 05:27:08;;;;;;;3.83;3.50;;;9.90;99.90;;;;;;5012367;28;20891;-81
2023/09/24 05:29:35;;;;;;;4.10;3.80;;;9.90;99.90;;;;;;5014009;28;20448;-80
2023/09/24 05:32:02;;;;;;;4.07;3.77;;;9.80;99.90;;;;;;5018313;28;20450;-78
2023/09/24 05:34:29;;;;;;;5.60;4.47;;;9.90;99.90;;;;;;5027808;28;20478;-79
2023/09/24 05:36:56;;;;;;;4.70;4.30;;;9.90;99.90;;;;;;5014814;28;20438;-79
2023/09/24 05:39:24;;;;;;;4.40;4.10;;;9.90;99.90;;;;;;5015517;28;20447;-79
2023/09/24 05:41:50;;;;;;;5.87;5.00;;;9.90;99.90;;;;;;5014669;28;20447;-79
2023/09/24 05:44:17;;;;;;;5.70;4.00;;;9.90;99.90;;;;;;5014226;28;20866;-79
2023/09/24 05:46:44;;;;;;;5.70;3.80;;;9.90;99.90;;;;;;5013290;28;20533;-79
2023/09/24 05:49:11;;;;;;;4.53;4.13;;;9.90;99.90;;;;;;5014479;28;20784;-82
2023/09/24 05:51:37;;;;;;;4.47;4.17;;;9.90;99.90;;;;;;5014408;28;20959;-79
2023/09/24 05:54:04;;;;;;;4.13;3.83;;;9.90;99.90;;;;;;5014788;28;20450;-80
2023/09/24 05:56:33;;;;;;;4.03;3.73;;;10.00;99.90;;;;;;5014388;28;20959;-80
2023/09/24 05:58:59;;;;;;;4.70;3.90;;;10.00;99.90;;;;;;5012847;28;20475;-78
2023/09/24 06:01:26;;;;;;;4.40;4.00;;;10.10;99.90;;;;;;5012212;28;20447;-78
2023/09/24 06:03:53;;;;;;;4.20;3.90;;;10.10;99.90;;;;;;5014374;28;20444;-78
2023/09/24 06:06:19;;;;;;;4.40;4.00;;;10.20;99.90;;;;;;5008912;28;20483;-77
2023/09/24 06:08:46;;;;;;;4.43;4.03;;;10.20;99.90;;;;;;5014256;28;20815;-80
2023/09/24 06:11:13;;;;;;;4.00;3.60;;;10.30;99.90;;;;;;5005551;28;20449;-80
2023/09/24 06:13:41;;;;;;;3.70;3.30;;;10.30;99.90;;;;;;5014904;28;20443;-79
2023/09/24 06:16:08;;;;;;;4.40;4.00;;;10.40;99.90;;;;;;5015869;28;20466;-78
2023/09/24 06:18:35;;;;;;;4.40;4.00;;;10.40;99.90;;;;;;5007729;28;20444;-79
2023/09/24 06:21:04;;;;;;;4.23;3.93;;;10.40;99.90;;;;;;5014946;28;20452;-80
2023/09/24 06:23:30;;;;;;;13.40;12.20;;;10.50;99.90;;;;;;5015532;28;20513;-80
2023/09/24 06:25:58;;;;;;;6.43;5.83;;;10.50;99.90;;;;;;5014835;28;20514;-80
2023/09/24 06:28:25;;;;;;;4.77;3.67;;;10.50;99.90;;;;;;5015375;28;20452;-81
2023/09/24 06:31:00;;;;;;;3.57;3.37;;;10.60;99.90;;;;;;5006877;28;20443;-77
2023/09/24 06:33:27;;;;;;;5.20;4.27;;;10.60;99.90;;;;;;5009061;28;20476;-79
2023/09/24 06:35:54;;;;;;;4.20;3.87;;;10.70;99.90;;;;;;5014975;28;20503;-81
2023/09/24 06:38:21;;;;;;;4.60;4.20;;;10.80;99.90;;;;;;5015031;28;20449;-79
2023/09/24 06:40:56;;;;;;;4.90;4.50;;;10.90;99.90;;;;;;5012127;28;20450;-79
2023/09/24 06:43:24;;;;;;;4.60;4.20;;;10.90;99.90;;;;;;5014457;28;20442;-79
2023/09/24 06:45:51;;;;;;;5.97;4.70;;;11.00;99.90;;;;;;5007936;28;20538;-80
2023/09/24 06:48:19;;;;;;;5.23;4.83;;;11.00;99.90;;;;;;5010942;28;20924;-80
2023/09/24 06:50:46;;;;;;;5.03;4.43;;;11.10;99.90;;;;;;5020419;28;20476;-78
2023/09/24 06:53:13;;;;;;;7.50;6.80;;;11.10;99.90;;;;;;5014289;28;20455;-78
2023/09/24 06:55:40;;;;;;;4.70;4.40;;;11.20;99.90;;;;;;5018835;28;20493;-79
2023/09/24 06:58:07;;;;;;;5.53;5.13;;;11.20;99.90;;;;;;5010906;28;20439;-78
2023/09/24 07:00:33;;;;;;;4.53;4.20;;;11.30;99.90;;;;;;5019880;28;20850;-80
2023/09/24 07:03:00;;;;;;;5.20;4.80;;;11.40;99.90;;;;;;5018941;28;20454;-80
2023/09/24 07:05:28;;;;;;;5.00;4.60;;;11.50;99.90;;;;;;5019059;28;20463;-78
2023/09/24 07:07:55;;;;;;;4.30;3.90;;;11.50;99.90;;;;;;5010664;28;20488;-79
2023/09/24 07:10:23;;;;;;;4.67;4.37;;;11.60;99.90;;;;;;5019934;28;21014;-82
2023/09/24 07:12:49;;;;;;;4.87;4.47;;;11.60;99.90;;;;;;5018931;28;20455;-77
2023/09/24 07:15:17;;;;;;;6.07;4.60;;;11.70;99.90;;;;;;5017564;28;20463;-78
2023/09/24 07:17:43;;;;;;;4.33;3.93;;;11.90;99.90;;;;;;5018662;28;20435;-78
2023/09/24 07:20:12;;;;;;;6.53;5.93;;;12.00;99.90;;;;;;5019815;28;20936;-79
2023/09/24 07:22:40;;;;;;;5.93;5.40;;;12.20;99.90;;;;;;5019501;28;20439;-79
2023/09/24 07:25:07;;;;;;;5.40;4.90;;;12.30;99.90;;;;;;5017742;28;20971;-79
2023/09/24 07:27:34;;;;;;;4.93;4.40;;;12.50;99.90;;;;;;5017950;28;20475;-78
2023/09/24 07:30:02;;;;;;;5.00;4.60;;;12.60;99.90;;;;;;5018660;28;20447;-78
2023/09/24 07:32:29;;;;;;;4.33;4.00;;;12.70;99.90;;;;;;5018473;28;20456;-78
2023/09/24 07:34:56;;;;;;;5.00;4.57;;;12.70;99.90;;;;;;5017794;28;20510;-78
2023/09/24 07:37:22;;;;;;;5.33;3.53;;;12.90;99.90;;;;;;5018344;28;20447;-78
2023/09/24 07:39:51;;;;;;;4.60;4.20;;;13.00;99.90;;;;;;5018721;28;20456;-80
2023/09/24 07:42:18;;;;;;;4.63;4.17;;;13.20;99.90;;;;;;5019206;28;20448;-79
2023/09/24 07:44:45;;;;;;;4.60;4.30;;;13.40;99.90;;;;;;5018923;28;20468;-79
2023/09/24 07:47:11;;;;;;;4.30;3.70;;;13.50;99.90;;;;;;5012568;28;20475;-79
2023/09/24 07:49:38;;;;;;;3.90;3.60;;;13.70;99.90;;;;;;5010762;28;20458;-79
2023/09/24 07:52:05;;;;;;;3.70;3.40;;;13.80;99.90;;;;;;5019873;28;20447;-79
2023/09/24 07:54:31;;;;;;;3.27;3.00;;;14.00;99.90;;;;;;5019016;28;20470;-80
2023/09/24 07:56:59;;;;;;;4.60;4.20;;;14.10;99.90;;;;;;5018139;28;20797;-78
2023/09/24 07:59:26;;;;;;;4.10;3.90;;;14.30;99.90;;;;;;5019103;28;20444;-79
2023/09/24 08:01:53;;;;;;;3.50;3.20;;;14.50;99.90;;;;;;5019083;28;20447;-80
2023/09/24 08:04:20;;;;;;;4.50;3.50;;;14.60;99.90;;;;;;5018788;28;20447;-80
2023/09/24 08:06:46;;;;;;;4.20;3.73;;;14.50;99.90;;;;;;5018838;28;20509;-79
2023/09/24 08:09:13;;;;;;;4.60;3.80;;;14.90;99.90;;;;;;5018229;28;20506;-81
2023/09/24 08:11:40;;;;;;;3.83;3.63;;;15.10;99.90;;;;;;5017808;28;20470;-79
2023/09/24 08:14:08;;;;;;;4.77;3.70;;;15.40;99.90;;;;;;5017534;28;20952;-80
2023/09/24 08:16:35;;;;;;;3.90;3.50;;;15.60;99.90;;;;;;5018751;28;20442;-79
2023/09/24 08:19:02;;;;;;;4.80;3.00;;;15.80;99.90;;;;;;5019162;28;20443;-81
2023/09/24 08:21:28;;;;;;;3.33;3.13;;;16.00;99.90;;;;;;5013035;28;20440;-77
2023/09/24 08:23:55;;;;;;;3.50;3.20;;;16.10;99.90;;;;;;4999821;28;20586;-79
2023/09/24 08:26:22;;;;;;;4.30;3.07;;;16.00;99.90;;;;;;5010386;28;20503;-78
2023/09/24 08:28:49;;;;;;;3.53;3.30;;;15.70;99.90;;;;;;5029663;28;20447;-77
2023/09/24 08:31:17;;;;;;;2.80;2.60;;;15.80;99.90;;;;;;5038564;28;20427;-77
2023/09/24 08:33:44;;;;;;;3.63;3.33;;;16.10;99.90;;;;;;5038524;28;20448;-75
2023/09/24 08:36:11;;;;;;;4.03;2.80;;;16.20;99.90;;;;;;5038342;28;20483;-77
2023/09/24 08:38:38;;;;;;;3.23;3.03;;;16.80;99.90;;;;;;5038226;28;20431;-75
2023/09/24 08:41:11;;;;;;;3.13;2.83;;;16.90;99.90;;;;;;5038293;28;20475;-74
2023/09/24 08:43:41;;;;;;;3.40;2.97;;;17.20;99.90;;;;;;5021123;28;20854;-79
2023/09/24 08:46:09;;;;;;;2.63;2.43;;;17.40;99.90;;;;;;5020598;28;20475;-81
2023/09/24 08:48:38;;;;;;;2.90;2.30;;;17.50;99.90;;;;;;5020148;28;20602;-80
2023/09/24 08:51:07;;;;;;;3.10;2.80;;;17.30;99.90;;;;;;5020221;28;20451;-80
2023/09/24 08:53:36;;;;;;;3.80;2.80;;;17.20;99.90;;;;;;5019813;28;20447;-79
2023/09/24 08:56:03;;;;;;;4.90;2.70;;;17.60;99.90;;;;;;5003631;28;20515;-81
2023/09/24 08:58:30;;;;;;;2.07;1.97;;;18.00;99.90;;;;;;5019149;28;20447;-81
2023/09/24 09:00:56;;;;;;;3.17;2.60;;;18.00;99.90;;;;;;5010984;28;20453;-79
2023/09/24 09:03:23;;;;;;;2.87;2.30;;;18.40;99.90;;;;;;5019622;28;20439;-80
2023/09/24 09:05:51;;;;;;;4.17;2.80;;;18.30;99.90;;;;;;5018690;28;20463;-79
2023/09/24 09:08:18;;;;;;;3.57;2.50;;;18.30;99.90;;;;;;5010619;28;20480;-80
2023/09/24 09:10:46;;;;;;;3.30;2.60;;;18.90;99.90;;;;;;5018711;28;20494;-79
2023/09/24 09:13:15;;;;;;;2.80;2.60;;;18.90;99.90;;;;;;5018771;28;20447;-79
2023/09/24 09:15:43;;;;;;;3.10;2.43;;;19.20;99.90;;;;;;5018899;28;20473;-78
2023/09/24 09:18:22;;;;;;;2.70;2.50;;;19.50;99.90;;;;;;5020315;28;20440;-80
2023/09/24 09:20:51;;;;;;;2.60;2.40;;;19.80;99.90;;;;;;5011519;28;20521;-79
2023/09/24 09:23:30;;;;;;;2.70;2.13;;;19.80;99.90;;;;;;5018155;28;20446;-80
2023/09/24 09:25:57;;;;;;;4.40;2.63;;;19.70;99.90;;;;;;5017612;28;20475;-80
2023/09/24 09:28:25;;;;;;;3.40;2.23;;;19.80;99.90;;;;;;5018857;28;20513;-79
2023/09/24 09:31:04;;;;;;;2.20;2.00;;;20.10;99.90;;;;;;5011895;28;20448;-79
2023/09/24 09:33:35;;;;;;;2.50;2.10;;;20.40;99.90;;;;;;5013648;28;20464;-81
2023/09/24 09:36:03;;;;;;;2.33;2.10;;;20.70;99.90;;;;;;5021205;28;20471;-81
2023/09/24 09:38:30;;;;;;;3.40;2.20;;;20.80;99.90;;;;;;5023845;28;20446;-78
2023/09/24 09:40:58;;;;;;;2.67;2.40;;;20.10;99.90;;;;;;5023021;28;20467;-79
2023/09/24 09:43:26;;;;;;;2.60;2.17;;;20.00;99.90;;;;;;5020749;28;20444;-80
2023/09/24 09:45:55;;;;;;;2.57;2.17;;;20.10;99.90;;;;;;5021074;28;20464;-79
2023/09/24 09:48:32;;;;;;;4.67;2.23;;;19.60;99.90;;;;;;5018940;28;20471;-80
2023/09/24 09:51:06;;;;;;;3.53;2.60;;;20.30;99.90;;;;;;5019501;28;20440;-81
2023/09/24 09:53:35;;;;;;;3.10;2.00;;;20.80;99.90;;;;;;5016837;28;20485;-80
2023/09/24 09:56:04;;;;;;;2.40;2.20;;;20.70;99.90;;;;;;5015443;28;20471;-78
2023/09/24 09:58:32;;;;;;;2.87;1.83;;;21.30;99.90;;;;;;5014669;28;20448;-80
2023/09/24 10:01:00;;;;;;;2.10;1.90;;;21.60;99.90;;;;;;5014745;28;20522;-81
2023/09/24 10:03:29;;;;;;;2.13;1.87;;;21.80;99.90;;;;;;5015341;28;20510;-79
2023/09/24 10:05:59;;;;;;;2.23;2.00;;;21.90;99.90;;;;;;5014680;28;20466;-81
2023/09/24 10:08:40;;;;;;;2.23;2.03;;;22.00;99.90;;;;;;5014929;28;20498;-80
2023/09/24 10:11:08;;;;;;;3.23;2.13;;;21.80;99.90;;;;;;5014960;28;20439;-78
2023/09/24 10:13:43;;;;;;;2.70;1.97;;;21.80;99.90;;;;;;5028217;28;20440;-78
2023/09/24 10:16:38;;;;;;;1.70;1.60;;;22.50;99.90;;;;;;5019424;28;20492;-79
2023/09/24 10:19:07;;;;;;;2.43;2.17;;;22.40;99.90;;;;;;4992568;28;20471;-79
2023/09/24 10:21:35;;;;;;;3.60;1.90;;;22.50;99.90;;;;;;5018548;28;20455;-78
2023/09/24 10:24:47;;;;;;;1.83;1.70;;;22.70;99.90;;;;;;5017563;28;20451;-82
2023/09/24 10:27:16;;;;;;;1.63;1.53;;;23.10;99.90;;;;;;5015527;28;20498;-79
2023/09/24 10:30:10;;;;;;;2.37;1.60;;;23.40;99.90;;;;;;5014382;28;20463;-79
2023/09/24 10:32:50;;;;;;;1.83;1.57;;;23.40;99.90;;;;;;5016464;28;20955;-79
2023/09/24 10:35:18;;;;;;;2.93;1.80;;;23.30;99.90;;;;;;5013204;28;20992;-79
2023/09/24 10:38:02;;;;;;;3.63;2.17;;;23.40;99.90;;;;;;5012458;28;20539;-77
2023/09/24 10:40:29;;;;;;;2.37;2.17;;;22.80;99.90;;;;;;4992534;28;20436;-78
2023/09/24 10:43:17;;;;;;;2.20;1.87;;;22.40;99.90;;;;;;4993517;28;20440;-80
2023/09/24 10:45:44;;;;;;;1.87;1.77;;;22.80;99.90;;;;;;5000489;28;20522;-78
2023/09/24 10:48:12;;;;;;;2.60;2.07;;;23.50;99.90;;;;;;5009892;28;20483;-77
2023/09/24 10:50:40;;;;;;;2.40;1.93;;;23.80;99.90;;;;;;5007428;28;20444;-76
2023/09/24 10:53:08;;;;;;;2.87;2.10;;;23.80;99.90;;;;;;5002231;28;20447;-78
2023/09/24 10:55:37;;;;;;;2.60;2.00;;;24.00;99.90;;;;;;5012126;28;20467;-79
2023/09/24 10:58:06;;;;;;;3.57;2.50;;;24.00;99.80;;;;;;5012006;28;20444;-78
2023/09/24 11:00:35;;;;;;;2.60;2.03;;;24.20;99.90;;;;;;5006299;28;20871;-77
2023/09/24 11:03:04;;;;;;;2.10;1.70;;;24.10;99.00;;;;;;5012271;28;20866;-80
2023/09/24 11:05:35;;;;;;;2.03;1.93;;;24.00;98.10;;;;;;5012309;28;20467;-78
2023/09/24 11:08:02;;;;;;;1.80;1.70;;;24.20;98.80;;;;;;5011388;28;20550;-77
2023/09/24 11:10:28;;;;;;;2.30;2.03;;;24.10;99.30;;;;;;5005247;28;20925;-79
2023/09/24 11:12:57;;;;;;;2.30;1.80;;;24.60;99.40;;;;;;5012304;28;20915;-78
2023/09/24 11:15:26;;;;;;;1.63;1.53;;;23.90;98.50;;;;;;5011725;28;20475;-78
2023/09/24 11:17:54;;;;;;;1.93;1.83;;;24.10;98.90;;;;;;5011034;28;20451;-79
2023/09/24 11:20:22;;;;;;;1.90;1.80;;;24.20;97.20;;;;;;5011228;28;20547;-77
2023/09/24 11:22:56;;;;;;;2.67;1.93;;;24.60;95.80;;;;;;5011507;28;20455;-79
2023/09/24 11:25:23;;;;;;;2.03;1.73;;;24.80;95.80;;;;;;5011472;28;20560;-83
2023/09/24 11:27:52;;;;;;;2.13;1.93;;;25.20;94.60;;;;;;5011501;28;20475;-78
2023/09/24 11:30:21;;;;;;;2.37;1.93;;;25.20;94.20;;;;;;5011800;28;20447;-78
2023/09/24 11:32:50;;;;;;;2.27;1.87;;;24.80;94.40;;;;;;5013745;28;20655;-78
2023/09/24 11:35:19;;;;;;;2.00;1.80;;;25.60;94.90;;;;;;5015181;28;20463;-80
2023/09/24 11:37:54;;;;;;;5.40;2.00;;;25.70;94.60;;;;;;5015264;28;20439;-78
2023/09/24 11:40:21;;;;;;;2.30;1.73;;;25.90;94.10;;;;;;5016205;28;20450;-81
2023/09/24 11:42:52;;;;;;;3.20;1.70;;;25.60;93.00;;;;;;5031371;28;20537;-78
2023/09/24 11:45:38;;;;;;;3.90;1.70;;;25.60;92.00;;;;;;5024496;28;20467;-80
2023/09/24 11:48:06;;;;;;;1.97;1.60;;;25.40;91.90;;;;;;5015435;28;20494;-78
2023/09/24 11:50:35;;;;;;;1.87;1.67;;;25.30;91.20;;;;;;5015170;28;20462;-79
2023/09/24 11:53:02;;;;;;;2.77;1.90;;;24.80;90.80;;;;;;4995720;28;20440;-79
2023/09/24 11:55:29;;;;;;;2.80;1.87;;;24.50;91.00;;;;;;4999758;28;20478;-81
2023/09/24 11:57:56;;;;;;;1.60;1.50;;;24.70;91.60;;;;;;5014805;28;20439;-78
2023/09/24 12:00:22;;;;;;;1.80;1.53;;;25.40;91.90;;;;;;5014803;28;20439;-77
2023/09/24 12:02:49;;;;;;;2.57;1.57;;;25.60;91.10;;;;;;5015237;28;20450;-80
2023/09/24 12:05:16;;;;;;;2.80;1.37;;;25.90;90.00;;;;;;5015763;28;20498;-77
2023/09/24 12:07:44;;;;;;;1.63;1.53;;;25.90;87.40;;;;;;5014880;28;20439;-79
2023/09/24 12:10:12;;;;;;;1.50;1.40;;;26.30;86.60;;;;;;5014643;28;20961;-81
2023/09/24 12:12:38;;;;;;;2.50;2.00;;;26.80;84.60;;;;;;5016581;28;20498;-81
2023/09/24 12:15:07;;;;;;;11.13;1.93;;;26.80;84.10;;;;;;5035762;28;20493;-80
2023/09/24 12:17:33;;;;;;;2.23;1.40;;;26.50;83.20;;;;;;5035696;28;20446;-82
2023/09/24 12:20:00;;;;;;;1.70;1.30;;;26.60;83.20;;;;;;5036858;28;20504;-82
2023/09/24 12:22:27;;;;;;;4.10;1.60;;;26.50;83.10;;;;;;4997065;28;20437;-80
2023/09/24 12:24:57;;;;;;;1.70;1.60;;;26.60;81.70;;;;;;5011515;28;20471;-81
2023/09/24 12:27:23;;;;;;;1.83;1.73;;;26.10;81.50;;;;;;5014394;28;20987;-78
2023/09/24 12:29:50;;;;;;;1.77;1.53;;;26.20;81.50;;;;;;5014134;28;20975;-79
2023/09/24 12:32:16;;;;;;;2.10;1.43;;;26.20;81.10;;;;;;5013047;28;20451;-79
2023/09/24 12:34:43;;;;;;;2.67;2.13;;;26.10;81.40;;;;;;4995805;28;20471;-78
2023/09/24 12:37:10;;;;;;;2.33;1.93;;;26.40;80.30;;;;;;4995276;28;20499;-79
2023/09/24 12:39:37;;;;;;;2.20;1.60;;;26.30;78.90;;;;;;4995388;28;20448;-79
2023/09/24 12:42:05;;;;;;;2.40;1.50;;;26.00;79.30;;;;;;4994910;28;20459;-78
2023/09/24 12:44:32;;;;;;;1.73;1.40;;;26.60;78.10;;;;;;5005838;28;20846;-79
2023/09/24 12:46:59;;;;;;;2.00;1.60;;;26.60;78.60;;;;;;5006599;28;20452;-80
2023/09/24 12:49:26;;;;;;;3.27;1.70;;;27.10;77.30;;;;;;4994507;28;20484;-79
2023/09/24 12:51:52;;;;;;;1.50;1.40;;;27.30;74.50;;;;;;4994358;28;20444;-82
2023/09/24 12:54:20;;;;;;;1.67;1.57;;;26.60;72.60;;;;;;5013510;28;20807;-79